Time;durP1;ratioP1;P1;durP2;ratioP2;P2;SDS_P1;SDS_P2;PMS_P1;PMS_P2;Temp;Humidity;BMP_temperature;BMP_pressure;BME280_temperature;BME280_humidity;BME280_pressure;Samples;Min_cycle;Max_cycle;Signal;HPM_P1;HPM_P2
2021/04/26 00:01:15;;;;;;;2.90;1.52;;;;;;;;;;5094820;28;20252;-60
2021/04/26 00:03:41;;;;;;;1.73;1.20;;;;;;;;;;5094204;28;20203;-61
2021/04/26 00:06:08;;;;;;;1.35;1.25;;;;;;;;;;5094313;28;20239;-60
2021/04/26 00:08:35;;;;;;;1.70;1.23;;;;;;;;;;5094851;28;20224;-61
2021/04/26 00:11:02;;;;;;;2.67;1.35;;;;;;;;;;5094222;28;20204;-61
2021/04/26 00:13:30;;;;;;;1.98;1.55;;;;;;;;;;5094353;28;20580;-61
2021/04/26 00:15:56;;;;;;;1.30;1.20;;;;;;;;;;5094295;28;20228;-61
2021/04/26 00:18:23;;;;;;;2.45;1.52;;;;;;;;;;5094360;28;20211;-60
2021/04/26 00:20:50;;;;;;;2.88;1.50;;;;;;;;;;5094606;28;20200;-61
2021/04/26 00:23:17;;;;;;;1.48;1.38;;;;;;;;;;5095338;28;20272;-61
2021/04/26 00:25:44;;;;;;;2.42;1.60;;;;;;;;;;5098016;28;20227;-61
2021/04/26 00:28:11;;;;;;;2.10;1.35;;;;;;;;;;5097952;28;20588;-60
2021/04/26 00:30:38;;;;;;;1.52;1.10;;;;;;;;;;5097637;28;20211;-60
2021/04/26 00:33:05;;;;;;;1.85;1.33;;;;;;;;;;5098131;28;20571;-60
2021/04/26 00:35:31;;;;;;;2.60;1.40;;;;;;;;;;5097902;28;20223;-61
2021/04/26 00:37:58;;;;;;;2.42;1.30;;;;;;;;;;5098372;28;20256;-61
2021/04/26 00:40:25;;;;;;;2.67;1.40;;;;;;;;;;5098247;28;20196;-61
2021/04/26 00:42:52;;;;;;;1.83;1.20;;;;;;;;;;5098203;28;20204;-61
2021/04/26 00:45:21;;;;;;;1.50;1.20;;;;;;;;;;5097623;28;20712;-62
2021/04/26 00:47:48;;;;;;;1.67;1.58;;;;;;;;;;5097923;28;20227;-61
2021/04/26 00:50:16;;;;;;;2.55;1.42;;;;;;;;;;5097523;28;20205;-61
2021/04/26 00:52:43;;;;;;;3.05;1.52;;;;;;;;;;5097677;28;20199;-60
2021/04/26 00:55:11;;;;;;;2.35;1.52;;;;;;;;;;5097814;28;20228;-61
2021/04/26 00:57:38;;;;;;;1.60;1.50;;;;;;;;;;5097732;28;20215;-61
2021/04/26 01:00:06;;;;;;;1.92;1.50;;;;;;;;;;5097782;28;20672;-61
2021/04/26 01:02:34;;;;;;;2.80;1.75;;;;;;;;;;5098382;28;20200;-61
2021/04/26 01:05:01;;;;;;;1.70;1.50;;;;;;;;;;5098372;28;20269;-60
2021/04/26 01:07:28;;;;;;;2.08;1.25;;;;;;;;;;5101523;28;20231;-61
2021/04/26 01:09:55;;;;;;;1.55;1.30;;;;;;;;;;5098373;28;20221;-61
2021/04/26 01:12:30;;;;;;;3.28;1.52;;;;;;;;;;5097722;28;20207;-61
2021/04/26 01:15:03;;;;;;;2.08;1.42;;;;;;;;;;5098204;28;20245;-61
2021/04/26 01:17:32;;;;;;;3.25;1.42;;;;;;;;;;5098063;28;20640;-61
2021/04/26 01:20:14;;;;;;;1.60;1.42;;;;;;;;;;5098554;28;20229;-61
2021/04/26 01:22:59;;;;;;;3.10;1.48;;;;;;;;;;5074398;28;20208;-61
2021/04/26 01:25:28;;;;;;;1.75;1.50;;;;;;;;;;5111325;28;20216;-60
2021/04/26 01:28:13;;;;;;;1.67;1.50;;;;;;;;;;5108472;28;20200;-61
2021/04/26 01:30:42;;;;;;;1.55;1.40;;;;;;;;;;5111833;28;20189;-61
2021/04/26 01:33:10;;;;;;;1.75;1.30;;;;;;;;;;5100225;28;20226;-60
2021/04/26 01:35:38;;;;;;;2.88;1.50;;;;;;;;;;5097980;28;20220;-60
2021/04/26 01:38:07;;;;;;;9.52;1.90;;;;;;;;;;5098170;28;20203;-60
2021/04/26 01:40:34;;;;;;;1.70;1.60;;;;;;;;;;5097796;28;20208;-61
2021/04/26 01:43:02;;;;;;;1.95;1.50;;;;;;;;;;5097309;28;20215;-61
2021/04/26 01:45:29;;;;;;;2.05;1.30;;;;;;;;;;5096417;28;20706;-61
2021/04/26 01:47:57;;;;;;;2.03;1.20;;;;;;;;;;5096730;28;20203;-62
2021/04/26 01:50:26;;;;;;;3.88;1.65;;;;;;;;;;5096475;28;20205;-61
2021/04/26 01:52:53;;;;;;;1.60;1.15;;;;;;;;;;5096419;28;20210;-61
2021/04/26 01:55:21;;;;;;;3.50;1.60;;;;;;;;;;5096404;28;20224;-62
2021/04/26 01:57:48;;;;;;;1.85;1.20;;;;;;;;;;5096183;28;20207;-62
2021/04/26 02:00:16;;;;;;;2.17;1.40;;;;;;;;;;5096373;28;20250;-60
2021/04/26 02:02:44;;;;;;;1.70;1.50;;;;;;;;;;5096413;28;20670;-61
2021/04/26 02:05:11;;;;;;;3.65;1.73;;;;;;;;;;5096669;28;20224;-61
2021/04/26 02:07:40;;;;;;;2.92;1.90;;;;;;;;;;5099094;28;20215;-61
2021/04/26 02:10:08;;;;;;;2.17;1.73;;;;;;;;;;5103249;28;20197;-62
2021/04/26 02:12:35;;;;;;;2.40;1.77;;;;;;;;;;5109677;28;20200;-60
2021/04/26 02:15:02;;;;;;;3.97;1.80;;;;;;;;;;5096707;28;20220;-60
2021/04/26 02:17:29;;;;;;;4.30;2.55;;;;;;;;;;5096082;28;20205;-61
2021/04/26 02:19:56;;;;;;;2.55;1.77;;;;;;;;;;5095908;28;20198;-60
2021/04/26 02:22:23;;;;;;;2.00;1.63;;;;;;;;;;5095825;28;20203;-60
2021/04/26 02:24:51;;;;;;;3.20;2.53;;;;;;;;;;5095577;28;20207;-60
2021/04/26 02:27:17;;;;;;;4.05;2.30;;;;;;;;;;5095443;28;20203;-60
2021/04/26 02:29:44;;;;;;;2.28;2.03;;;;;;;;;;5095684;28;20224;-60
2021/04/26 02:32:15;;;;;;;3.42;1.92;;;;;;;;;;5095617;28;20197;-60
2021/04/26 02:34:44;;;;;;;3.38;2.15;;;;;;;;;;5095833;28;20184;-61
2021/04/26 02:37:13;;;;;;;2.90;1.80;;;;;;;;;;5095636;28;20206;-61
2021/04/26 02:39:40;;;;;;;2.80;1.70;;;;;;;;;;5095729;28;20203;-61
2021/04/26 02:42:08;;;;;;;2.58;2.10;;;;;;;;;;5095107;28;20332;-61
2021/04/26 02:44:38;;;;;;;3.00;1.92;;;;;;;;;;5095414;28;20204;-61
2021/04/26 02:47:05;;;;;;;2.58;2.13;;;;;;;;;;5094408;28;20204;-61
2021/04/26 02:49:32;;;;;;;5.25;1.77;;;;;;;;;;5095375;28;20216;-61
2021/04/26 02:51:59;;;;;;;3.10;2.40;;;;;;;;;;5095229;28;20214;-60
2021/04/26 02:54:27;;;;;;;7.75;1.90;;;;;;;;;;5095368;28;20203;-60
2021/04/26 02:56:56;;;;;;;3.47;2.13;;;;;;;;;;5095292;28;20235;-61
2021/04/26 02:59:24;;;;;;;3.10;2.28;;;;;;;;;;5094799;28;20203;-60
2021/04/26 03:01:52;;;;;;;3.97;2.95;;;;;;;;;;5094985;28;20204;-60
2021/04/26 03:04:19;;;;;;;5.32;3.05;;;;;;;;;;5094821;28;20211;-61
2021/04/26 03:06:47;;;;;;;3.03;2.03;;;;;;;;;;5094379;28;20231;-61
2021/04/26 03:09:14;;;;;;;4.72;2.50;;;;;;;;;;5094544;28;20223;-60
2021/04/26 03:11:42;;;;;;;3.22;2.00;;;;;;;;;;5095224;28;20207;-61
2021/04/26 03:14:09;;;;;;;5.43;2.50;;;;;;;;;;5094926;28;20215;-60
2021/04/26 03:16:37;;;;;;;4.82;1.90;;;;;;;;;;5094583;28;20273;-60
2021/04/26 03:19:07;;;;;;;6.15;2.05;;;;;;;;;;5095154;28;20193;-59
2021/04/26 03:21:34;;;;;;;2.83;1.92;;;;;;;;;;5094534;28;20621;-61
2021/04/26 03:24:01;;;;;;;4.20;2.00;;;;;;;;;;5094824;28;20209;-61
2021/04/26 03:26:28;;;;;;;2.65;1.90;;;;;;;;;;5095738;28;20223;-60
2021/04/26 03:28:55;;;;;;;2.97;2.00;;;;;;;;;;5094998;28;20561;-60
2021/04/26 03:31:22;;;;;;;2.75;2.13;;;;;;;;;;5097830;28;20203;-59
2021/04/26 03:33:50;;;;;;;2.60;2.00;;;;;;;;;;5100407;28;20207;-60
2021/04/26 03:36:17;;;;;;;5.22;2.15;;;;;;;;;;5098589;28;20232;-60
2021/04/26 03:38:44;;;;;;;3.78;2.00;;;;;;;;;;5099493;28;20199;-58
2021/04/26 03:41:11;;;;;;;3.78;2.33;;;;;;;;;;5101096;28;20576;-60
2021/04/26 03:43:38;;;;;;;4.43;2.15;;;;;;;;;;5102920;28;20612;-60
2021/04/26 03:46:05;;;;;;;5.15;2.05;;;;;;;;;;5104296;28;20246;-60
2021/04/26 03:48:31;;;;;;;6.88;2.78;;;;;;;;;;5101397;28;20214;-60
2021/04/26 03:50:59;;;;;;;4.82;2.20;;;;;;;;;;5105153;28;20200;-60
2021/04/26 03:53:26;;;;;;;6.57;2.08;;;;;;;;;;5106974;28;20203;-59
2021/04/26 03:55:52;;;;;;;4.38;2.60;;;;;;;;;;5100097;28;20228;-59
2021/04/26 03:58:19;;;;;;;7.18;2.45;;;;;;;;;;5101933;28;20223;-61
2021/04/26 04:00:46;;;;;;;4.43;2.30;;;;;;;;;;5101801;28;20253;-61
2021/04/26 04:03:14;;;;;;;4.85;2.30;;;;;;;;;;5101170;28;20208;-60
2021/04/26 04:08:01;;;;;;;3.92;2.30;;;;;;;;;;5118158;27;20540;-60
2021/04/26 04:10:28;;;;;;;7.00;3.45;;;;;;;;;;5118198;28;20249;-60
2021/04/26 04:12:55;;;;;;;5.75;2.33;;;;;;;;;;5114568;28;20203;-61
2021/04/26 04:15:22;;;;;;;4.05;2.72;;;;;;;;;;5106239;28;20221;-60
2021/04/26 04:17:48;;;;;;;3.28;2.15;;;;;;;;;;5091316;28;20200;-61
2021/04/26 04:20:15;;;;;;;7.55;2.80;;;;;;;;;;5091131;28;20204;-60
2021/04/26 04:22:42;;;;;;;4.25;2.45;;;;;;;;;;5091359;28;20203;-60
2021/04/26 04:25:11;;;;;;;4.35;2.85;;;;;;;;;;5091041;28;20222;-61
2021/04/26 04:27:37;;;;;;;5.03;2.90;;;;;;;;;;5091257;28;20273;-62
2021/04/26 04:30:05;;;;;;;5.63;2.50;;;;;;;;;;5091354;28;20204;-61
2021/04/26 04:32:32;;;;;;;5.30;3.75;;;;;;;;;;5091096;28;20201;-61
2021/04/26 04:34:58;;;;;;;3.95;2.40;;;;;;;;;;5090545;28;20208;-60
2021/04/26 04:37:25;;;;;;;6.72;2.58;;;;;;;;;;5090976;28;20247;-60
2021/04/26 04:39:52;;;;;;;3.38;2.70;;;;;;;;;;5091052;28;20230;-62
2021/04/26 04:42:20;;;;;;;4.45;2.92;;;;;;;;;;5092108;28;20205;-62
2021/04/26 04:44:46;;;;;;;5.75;3.22;;;;;;;;;;5090846;28;20210;-60
2021/04/26 04:47:13;;;;;;;5.05;3.10;;;;;;;;;;5091403;28;20226;-60
2021/04/26 04:49:40;;;;;;;6.53;2.60;;;;;;;;;;5090709;28;20267;-61
2021/04/26 04:52:07;;;;;;;5.93;3.22;;;;;;;;;;5090778;28;20204;-60
2021/04/26 04:54:34;;;;;;;3.15;2.85;;;;;;;;;;5090833;28;20206;-60
2021/04/26 04:57:01;;;;;;;8.38;3.20;;;;;;;;;;5090467;28;20219;-60
2021/04/26 04:59:28;;;;;;;5.15;3.00;;;;;;;;;;5090881;28;20201;-61
2021/04/26 05:01:55;;;;;;;8.55;3.15;;;;;;;;;;5090735;28;20211;-60
2021/04/26 05:04:22;;;;;;;4.43;2.92;;;;;;;;;;5090793;28;20204;-60
2021/04/26 05:06:48;;;;;;;6.15;2.55;;;;;;;;;;5091777;28;20235;-61
2021/04/26 05:09:15;;;;;;;4.80;2.35;;;;;;;;;;5091263;28;20201;-60
2021/04/26 05:11:42;;;;;;;5.85;2.60;;;;;;;;;;5092035;28;20244;-61
2021/04/26 05:14:09;;;;;;;10.82;2.75;;;;;;;;;;5091448;28;20196;-61
2021/04/26 05:16:36;;;;;;;5.53;2.40;;;;;;;;;;5091370;28;20235;-61
2021/04/26 05:19:03;;;;;;;10.75;2.67;;;;;;;;;;5079112;28;20208;-61
2021/04/26 05:21:30;;;;;;;4.38;2.35;;;;;;;;;;5077197;28;20216;-60
2021/04/26 05:23:57;;;;;;;4.65;2.20;;;;;;;;;;5077285;28;20201;-61
2021/04/26 05:26:26;;;;;;;16.42;3.83;;;;;;;;;;5077018;28;20229;-61
2021/04/26 05:28:53;;;;;;;24.17;5.63;;;;;;;;;;5076787;28;20200;-61
2021/04/26 05:31:20;;;;;;;7.75;2.47;;;;;;;;;;5085370;28;20208;-60
2021/04/26 05:33:48;;;;;;;5.90;2.35;;;;;;;;;;5078383;28;20207;-60
2021/04/26 05:36:15;;;;;;;3.45;1.80;;;;;;;;;;5076623;28;20627;-62
2021/04/26 05:38:41;;;;;;;9.98;3.90;;;;;;;;;;5077127;28;20208;-59
2021/04/26 05:41:08;;;;;;;10.77;2.40;;;;;;;;;;5076709;28;20220;-60
2021/04/26 05:43:35;;;;;;;5.65;2.92;;;;;;;;;;5077604;28;20200;-60
2021/04/26 05:46:02;;;;;;;3.45;1.80;;;;;;;;;;5078436;28;20226;-60
2021/04/26 05:48:28;;;;;;;4.30;2.15;;;;;;;;;;5078523;28;20203;-61
2021/04/26 05:50:56;;;;;;;3.78;2.00;;;;;;;;;;5078013;28;20218;-61
2021/04/26 05:53:23;;;;;;;3.88;2.38;;;;;;;;;;5077094;28;20226;-61
2021/04/26 05:55:50;;;;;;;6.75;2.22;;;;;;;;;;5077001;28;20221;-61
2021/04/26 05:58:17;;;;;;;3.35;2.42;;;;;;;;;;5077115;28;20203;-61
2021/04/26 06:00:44;;;;;;;4.13;2.50;;;;;;;;;;5076728;28;20214;-60
2021/04/26 06:03:11;;;;;;;7.38;2.83;;;;;;;;;;5076410;28;20668;-60
2021/04/26 06:05:37;;;;;;;3.78;2.05;;;;;;;;;;5076835;28;20224;-60
2021/04/26 06:08:05;;;;;;;3.47;2.30;;;;;;;;;;5076680;28;20260;-59
2021/04/26 06:10:32;;;;;;;5.00;2.60;;;;;;;;;;5076839;28;20915;-60
2021/04/26 06:12:59;;;;;;;4.63;2.80;;;;;;;;;;5077817;28;20209;-60
2021/04/26 06:15:26;;;;;;;5.78;2.10;;;;;;;;;;5077943;28;20225;-59
2021/04/26 06:17:53;;;;;;;8.38;3.13;;;;;;;;;;5079479;28;20199;-60
2021/04/26 06:20:20;;;;;;;5.25;2.70;;;;;;;;;;5078113;28;20662;-61
2021/04/26 06:22:47;;;;;;;2.88;2.50;;;;;;;;;;5077148;28;20202;-61
2021/04/26 06:25:15;;;;;;;2.60;1.92;;;;;;;;;;5076489;28;20717;-60
2021/04/26 06:27:42;;;;;;;5.03;2.33;;;;;;;;;;5076529;28;20699;-60
2021/04/26 06:30:09;;;;;;;3.35;2.15;;;;;;;;;;5076425;28;20207;-61
2021/04/26 06:32:36;;;;;;;4.63;1.90;;;;;;;;;;5088117;28;20201;-61
2021/04/26 06:35:02;;;;;;;6.68;1.90;;;;;;;;;;5092262;28;20228;-61
2021/04/26 06:37:30;;;;;;;3.10;2.10;;;;;;;;;;5092142;28;20199;-60
2021/04/26 06:39:57;;;;;;;2.15;1.98;;;;;;;;;;5091911;28;20217;-60
2021/04/26 06:42:24;;;;;;;4.22;2.10;;;;;;;;;;5089795;28;20211;-60
2021/04/26 06:44:51;;;;;;;2.35;1.95;;;;;;;;;;5087901;28;20203;-61
2021/04/26 06:47:18;;;;;;;2.15;1.90;;;;;;;;;;5087595;28;20237;-60
2021/04/26 06:49:45;;;;;;;5.10;2.60;;;;;;;;;;5087991;28;20264;-60
2021/04/26 06:52:11;;;;;;;2.10;1.85;;;;;;;;;;5088084;28;20204;-59
2021/04/26 06:54:38;;;;;;;5.65;2.08;;;;;;;;;;5086879;28;20579;-59
2021/04/26 06:57:05;;;;;;;5.00;1.90;;;;;;;;;;5087248;28;20229;-61
2021/04/26 06:59:33;;;;;;;3.58;1.58;;;;;;;;;;5087523;28;20203;-60
2021/04/26 07:02:00;;;;;;;6.13;2.67;;;;;;;;;;5089495;28;20209;-60
2021/04/26 07:04:26;;;;;;;2.42;2.03;;;;;;;;;;5087265;28;20197;-60
2021/04/26 07:06:53;;;;;;;4.20;2.03;;;;;;;;;;5081615;28;20687;-61
2021/04/26 07:09:20;;;;;;;4.00;1.90;;;;;;;;;;5079597;28;20204;-60
2021/04/26 07:11:47;;;;;;;3.45;3.15;;;;;;;;;;5084837;28;20229;-59
2021/04/26 07:14:14;;;;;;;2.95;1.83;;;;;;;;;;5076573;28;20201;-60
2021/04/26 07:16:42;;;;;;;3.05;1.83;;;;;;;;;;5075649;28;20215;-60
2021/04/26 07:19:09;;;;;;;3.47;2.35;;;;;;;;;;5075425;28;20661;-60
2021/04/26 07:21:35;;;;;;;2.40;1.50;;;;;;;;;;5075377;28;20211;-60
2021/04/26 07:24:02;;;;;;;4.70;2.40;;;;;;;;;;5075522;28;20211;-61
2021/04/26 07:26:29;;;;;;;2.25;1.80;;;;;;;;;;5076365;28;20232;-61
2021/04/26 07:28:56;;;;;;;3.78;1.90;;;;;;;;;;5076782;28;20276;-60
2021/04/26 07:31:22;;;;;;;2.95;1.90;;;;;;;;;;5074908;28;20199;-61
2021/04/26 07:33:50;;;;;;;2.70;1.80;;;;;;;;;;5073999;28;20207;-61
2021/04/26 07:36:17;;;;;;;2.95;1.63;;;;;;;;;;5074000;28;20221;-62
2021/04/26 07:38:44;;;;;;;5.15;2.25;;;;;;;;;;5074595;28;20234;-61
2021/04/26 07:41:11;;;;;;;2.80;1.95;;;;;;;;;;5074646;28;20230;-60
2021/04/26 07:43:39;;;;;;;2.42;1.40;;;;;;;;;;5074942;28;20201;-59
2021/04/26 07:46:05;;;;;;;4.20;1.85;;;;;;;;;;5075601;28;20221;-60
2021/04/26 07:48:32;;;;;;;1.70;1.40;;;;;;;;;;5076453;28;20201;-62
2021/04/26 07:51:00;;;;;;;2.53;1.92;;;;;;;;;;5075020;28;20574;-60
2021/04/26 07:53:27;;;;;;;2.67;1.60;;;;;;;;;;5075728;28;20204;-61
2021/04/26 07:55:54;;;;;;;2.60;1.60;;;;;;;;;;5076016;28;20228;-61
2021/04/26 07:58:21;;;;;;;5.15;2.33;;;;;;;;;;5075154;28;20208;-60
2021/04/26 08:00:48;;;;;;;15.60;3.22;;;;;;;;;;5075591;28;20205;-61
2021/04/26 08:03:16;;;;;;;4.82;1.73;;;;;;;;;;5074643;28;20614;-61
2021/04/26 08:05:42;;;;;;;2.28;1.50;;;;;;;;;;5074456;28;20232;-59
2021/04/26 08:08:10;;;;;;;4.22;2.10;;;;;;;;;;5074655;28;20206;-60
2021/04/26 08:10:37;;;;;;;3.35;2.10;;;;;;;;;;5074089;28;20230;-60
2021/04/26 08:13:04;;;;;;;6.78;3.35;;;;;;;;;;5073638;28;20332;-61
2021/04/26 08:15:31;;;;;;;4.28;2.55;;;;;;;;;;5073746;28;20226;-62
2021/04/26 08:17:58;;;;;;;4.13;1.88;;;;;;;;;;5074474;28;20204;-61
2021/04/26 08:20:25;;;;;;;2.40;1.73;;;;;;;;;;5073696;28;20201;-61
2021/04/26 08:22:52;;;;;;;1.50;1.40;;;;;;;;;;5074244;28;20467;-60
2021/04/26 08:25:20;;;;;;;4.03;1.67;;;;;;;;;;5073933;28;20217;-61
2021/04/26 08:27:47;;;;;;;3.13;1.57;;;;;;;;;;5074062;28;20217;-61
2021/04/26 08:30:14;;;;;;;3.30;1.67;;;;;;;;;;5075444;28;20462;-61
2021/04/26 08:32:41;;;;;;;2.43;1.40;;;;;;;;;;5077134;28;20250;-60
2021/04/26 08:35:09;;;;;;;1.67;1.30;;;;;;;;;;5074296;28;20479;-60
2021/04/26 08:37:36;;;;;;;2.33;1.30;;;;;;;;;;5074407;28;20194;-60
2021/04/26 08:40:03;;;;;;;4.47;1.30;;;;;;;;;;5074708;28;20447;-59
2021/04/26 08:42:30;;;;;;;20.23;3.73;;;;;;;;;;5074401;28;20431;-61
2021/04/26 08:44:57;;;;;;;2.80;1.50;;;;;;;;;;5074472;28;20443;-61
2021/04/26 08:47:25;;;;;;;22.80;4.10;;;;;;;;;;5078301;28;20480;-61
2021/04/26 08:49:55;;;;;;;3.87;1.97;;;;;;;;;;5082457;28;20940;-61
2021/04/26 08:52:22;;;;;;;3.97;2.63;;;;;;;;;;5078475;28;20454;-61
2021/04/26 08:54:49;;;;;;;2.60;1.10;;;;;;;;;;5079927;28;20451;-61
2021/04/26 08:57:15;;;;;;;2.33;1.40;;;;;;;;;;5078017;28;20451;-61
2021/04/26 08:59:45;;;;;;;3.40;1.20;;;;;;;;;;5077847;28;20458;-60
2021/04/26 09:02:12;;;;;;;2.50;1.40;;;;;;;;;;5078358;28;20438;-62
2021/04/26 09:04:46;;;;;;;4.80;1.60;;;;;;;;;;5077414;28;20196;-61
2021/04/26 09:07:14;;;;;;;3.67;1.67;;;;;;;;;;5077091;28;20505;-61
2021/04/26 09:09:42;;;;;;;2.47;1.60;;;;;;;;;;5077569;28;20443;-61
2021/04/26 09:12:10;;;;;;;1.80;1.30;;;;;;;;;;5077732;28;20448;-60
2021/04/26 09:14:38;;;;;;;2.60;1.60;;;;;;;;;;5077313;28;20452;-61
2021/04/26 09:17:25;;;;;;;2.30;1.43;;;;;;;;;;5078414;28;20450;-60
2021/04/26 09:19:53;;;;;;;2.57;1.50;;;;;;;;;;5074544;28;20454;-62
2021/04/26 09:22:35;;;;;;;2.83;1.70;;;;;;;;;;5076913;28;20446;-61
2021/04/26 09:25:18;;;;;;;2.70;1.60;;;;;;;;;;5076980;28;20467;-60
2021/04/26 09:27:51;;;;;;;1.33;1.20;;;;;;;;;;5076961;28;20459;-62
2021/04/26 09:30:34;;;;;;;1.90;1.60;;;;;;;;;;5076985;28;20427;-60
2021/04/26 09:33:14;;;;;;;3.70;1.30;;;;;;;;;;5077391;28;20515;-60
2021/04/26 09:35:42;;;;;;;6.37;2.40;;;;;;;;;;5077456;28;20458;-61
2021/04/26 09:38:23;;;;;;;1.50;1.33;;;;;;;;;;5076853;28;20813;-62
2021/04/26 09:41:05;;;;;;;4.10;2.20;;;;;;;;;;5076113;28;20440;-60
2021/04/26 09:43:31;;;;;;;2.50;1.20;;;;;;;;;;5076552;28;20435;-61
2021/04/26 09:45:58;;;;;;;2.10;1.70;;;;;;;;;;5076886;28;20884;-59
2021/04/26 09:48:27;;;;;;;2.37;2.13;;;;;;;;;;5077267;28;20488;-61
2021/04/26 09:50:55;;;;;;;4.57;2.73;;;;;;;;;;5076815;28;20447;-60
2021/04/26 09:53:23;;;;;;;2.60;1.73;;;;;;;;;;5076862;28;20955;-61
2021/04/26 09:55:51;;;;;;;12.03;3.07;;;;;;;;;;5076548;28;20477;-61
2021/04/26 09:58:18;;;;;;;3.37;1.73;;;;;;;;;;5076749;28;20985;-62
2021/04/26 10:00:46;;;;;;;1.80;1.47;;;;;;;;;;5077980;28;20451;-61
2021/04/26 10:03:14;;;;;;;4.63;1.90;;;;;;;;;;5077510;28;20508;-61
2021/04/26 10:05:42;;;;;;;10.63;3.40;;;;;;;;;;5077735;28;20464;-61
2021/04/26 10:08:11;;;;;;;5.07;1.70;;;;;;;;;;5079586;28;20467;-60
2021/04/26 10:10:39;;;;;;;3.97;1.70;;;;;;;;;;5078481;28;20450;-61
2021/04/26 10:13:05;;;;;;;22.80;4.67;;;;;;;;;;5078284;28;20954;-60
2021/04/26 10:15:32;;;;;;;2.40;1.83;;;;;;;;;;5077012;28;20494;-60
2021/04/26 10:18:00;;;;;;;4.83;1.80;;;;;;;;;;5077346;28;20955;-60
2021/04/26 10:20:34;;;;;;;14.53;4.37;;;;;;;;;;5077396;28;20957;-61
2021/04/26 10:23:01;;;;;;;2.80;1.73;;;;;;;;;;5078916;28;20431;-60
2021/04/26 10:25:42;;;;;;;2.60;2.00;;;;;;;;;;5077913;28;20463;-61
2021/04/26 10:28:28;;;;;;;2.50;1.70;;;;;;;;;;5078180;28;20910;-61
2021/04/26 10:30:58;;;;;;;2.93;2.10;;;;;;;;;;5077220;28;20456;-60
2021/04/26 10:33:25;;;;;;;1.90;1.60;;;;;;;;;;5076614;28;20891;-60
2021/04/26 10:35:52;;;;;;;2.40;1.90;;;;;;;;;;5076461;28;20517;-61
2021/04/26 10:38:44;;;;;;;4.70;2.70;;;;;;;;;;5076357;28;20435;-61
2021/04/26 10:41:31;;;;;;;6.93;2.47;;;;;;;;;;5073463;28;20505;-61
2021/04/26 10:43:58;;;;;;;2.63;2.10;;;;;;;;;;5077627;28;20446;-62
2021/04/26 10:46:25;;;;;;;2.67;1.80;;;;;;;;;;5085163;28;20455;-61
2021/04/26 10:49:19;;;;;;;3.90;2.23;;;;;;;;;;5077399;28;20485;-61
2021/04/26 10:51:46;;;;;;;2.10;1.80;;;;;;;;;;5051486;28;20513;-60
2021/04/26 10:54:12;;;;;;;1.87;1.70;;;;;;;;;;5075813;28;20448;-60
2021/04/26 10:56:40;;;;;;;2.10;1.90;;;;;;;;;;5075709;28;20458;-60
2021/04/26 10:59:25;;;;;;;2.43;1.43;;;;;;;;;;5075506;28;20435;-61
2021/04/26 11:01:53;;;;;;;4.53;1.40;;;;;;;;;;5075007;28;20497;-61
2021/04/26 11:04:20;;;;;;;2.57;1.60;;;;;;;;;;5075057;28;20487;-61
2021/04/26 11:07:00;;;;;;;3.07;1.73;;;;;;;;;;5074243;28;20498;-61
2021/04/26 11:09:34;;;;;;;3.17;1.53;;;;;;;;;;5074673;28;20445;-61
2021/04/26 11:12:05;;;;;;;2.47;1.60;;;;;;;;;;5076262;28;20431;-60
2021/04/26 11:14:32;;;;;;;2.80;1.97;;;;;;;;;;5078686;28;20443;-60
2021/04/26 11:17:02;;;;;;;1.83;1.57;;;;;;;;;;5074174;28;20463;-61
2021/04/26 11:19:28;;;;;;;2.70;1.70;;;;;;;;;;5074757;28;20445;-60
2021/04/26 11:21:56;;;;;;;2.67;1.53;;;;;;;;;;5074393;28;20448;-61
2021/04/26 11:24:41;;;;;;;4.07;2.23;;;;;;;;;;5074892;28;20451;-60
2021/04/26 11:27:19;;;;;;;3.00;1.97;;;;;;;;;;5074648;28;20471;-60
2021/04/26 11:30:00;;;;;;;2.40;1.57;;;;;;;;;;5074737;28;20871;-61
2021/04/26 11:32:28;;;;;;;4.07;1.90;;;;;;;;;;5075133;28;20508;-60
2021/04/26 11:35:06;;;;;;;2.87;2.10;;;;;;;;;;5075160;28;20451;-60
2021/04/26 11:37:35;;;;;;;4.40;2.57;;;;;;;;;;5074767;28;20940;-60
2021/04/26 11:40:13;;;;;;;2.13;1.90;;;;;;;;;;5075111;28;20435;-61
2021/04/26 11:42:41;;;;;;;3.80;2.10;;;;;;;;;;5075098;28;20447;-60
2021/04/26 11:45:08;;;;;;;3.90;2.60;;;;;;;;;;5075389;28;20467;-60
2021/04/26 11:47:35;;;;;;;2.90;2.30;;;;;;;;;;5075626;28;20475;-60
2021/04/26 11:50:03;;;;;;;3.40;2.17;;;;;;;;;;5075661;28;20505;-62
2021/04/26 11:52:31;;;;;;;4.23;1.87;;;;;;;;;;5075915;28;20458;-62
2021/04/26 11:55:09;;;;;;;2.40;1.83;;;;;;;;;;5075174;28;20445;-60
2021/04/26 11:57:40;;;;;;;2.10;1.77;;;;;;;;;;5075233;28;20428;-60
2021/04/26 12:00:09;;;;;;;2.10;1.73;;;;;;;;;;5075082;28;20792;-61
2021/04/26 12:02:38;;;;;;;3.10;2.13;;;;;;;;;;5074750;28;20474;-60
2021/04/26 12:05:06;;;;;;;2.40;2.20;;;;;;;;;;5075359;28;20475;-60
2021/04/26 12:07:33;;;;;;;2.00;1.80;;;;;;;;;;5076499;28;20480;-61
2021/04/26 12:10:00;;;;;;;2.87;2.10;;;;;;;;;;5075901;28;20774;-60
2021/04/26 12:12:28;;;;;;;3.83;3.10;;;;;;;;;;5076155;28;20443;-60
2021/04/26 12:14:55;;;;;;;2.97;2.50;;;;;;;;;;5076409;28;20448;-61
2021/04/26 12:17:26;;;;;;;5.43;2.57;;;;;;;;;;5077546;28;20462;-61
2021/04/26 12:19:53;;;;;;;6.53;2.33;;;;;;;;;;5077056;28;20443;-61
2021/04/26 12:22:21;;;;;;;4.10;2.77;;;;;;;;;;5077336;28;20458;-60
2021/04/26 12:24:48;;;;;;;3.37;1.90;;;;;;;;;;5076858;28;20448;-60
2021/04/26 12:27:16;;;;;;;3.27;2.00;;;;;;;;;;5076254;28;20495;-61
2021/04/26 12:29:43;;;;;;;4.43;2.00;;;;;;;;;;5080160;28;20521;-60
2021/04/26 12:32:16;;;;;;;6.50;2.50;;;;;;;;;;5080301;28;20444;-61
2021/04/26 12:34:52;;;;;;;7.50;3.37;;;;;;;;;;5082415;28;20434;-62
2021/04/26 12:37:19;;;;;;;6.67;2.13;;;;;;;;;;5088744;28;20435;-60
2021/04/26 12:39:46;;;;;;;4.93;2.10;;;;;;;;;;5082377;28;20539;-61
2021/04/26 12:42:13;;;;;;;3.43;2.20;;;;;;;;;;5079157;28;20474;-61
2021/04/26 12:44:40;;;;;;;3.40;2.00;;;;;;;;;;5085507;28;20473;-62
2021/04/26 12:47:25;;;;;;;4.33;2.40;;;;;;;;;;5086498;28;20471;-61
2021/04/26 12:50:06;;;;;;;4.00;2.43;;;;;;;;;;5088754;28;20434;-60
2021/04/26 12:52:34;;;;;;;4.27;2.17;;;;;;;;;;5087492;28;20469;-60
2021/04/26 12:55:02;;;;;;;8.57;2.93;;;;;;;;;;5083246;28;20520;-60
2021/04/26 12:57:30;;;;;;;5.90;1.97;;;;;;;;;;5086348;28;20446;-60
2021/04/26 12:59:57;;;;;;;5.60;2.03;;;;;;;;;;5084713;28;20452;-60
2021/04/26 13:02:24;;;;;;;3.20;2.07;;;;;;;;;;5082368;28;20943;-61
2021/04/26 13:04:51;;;;;;;2.17;1.80;;;;;;;;;;5081801;28;20512;-59
2021/04/26 13:07:19;;;;;;;3.63;2.20;;;;;;;;;;5081422;28;20544;-60
2021/04/26 13:09:46;;;;;;;3.00;1.83;;;;;;;;;;5082169;28;20450;-60
2021/04/26 13:12:13;;;;;;;2.03;1.83;;;;;;;;;;5083385;28;20447;-60
2021/04/26 13:14:40;;;;;;;4.20;2.40;;;;;;;;;;5083923;28;20439;-60
2021/04/26 13:17:09;;;;;;;2.77;2.47;;;;;;;;;;5085008;28;20448;-60
2021/04/26 13:19:36;;;;;;;5.00;2.47;;;;;;;;;;5084691;28;20459;-59
2021/04/26 13:22:03;;;;;;;3.03;2.23;;;;;;;;;;5084524;28;20451;-60
2021/04/26 13:24:31;;;;;;;4.85;3.10;;;;;;;;;;5085299;28;20461;-60
2021/04/26 13:26:59;;;;;;;8.80;2.37;;;;;;;;;;5086066;28;20225;-61
2021/04/26 13:29:27;;;;;;;3.00;2.33;;;;;;;;;;5081777;28;20455;-59
2021/04/26 13:31:55;;;;;;;2.50;2.30;;;;;;;;;;5077538;28;20454;-61
2021/04/26 13:34:22;;;;;;;3.60;2.07;;;;;;;;;;5077459;28;20474;-62
2021/04/26 13:36:49;;;;;;;8.57;4.20;;;;;;;;;;5076164;28;21120;-60
2021/04/26 13:39:18;;;;;;;2.23;1.90;;;;;;;;;;5076257;28;20444;-61
2021/04/26 13:41:45;;;;;;;4.10;2.80;;;;;;;;;;5077701;28;20459;-61
2021/04/26 13:44:13;;;;;;;3.77;2.30;;;;;;;;;;5077077;28;20481;-60
2021/04/26 13:46:41;;;;;;;3.17;2.67;;;;;;;;;;5075816;28;20547;-60
2021/04/26 13:49:07;;;;;;;2.90;2.23;;;;;;;;;;5075920;28;20439;-60
2021/04/26 13:51:35;;;;;;;6.70;2.87;;;;;;;;;;5076140;28;20443;-60
2021/04/26 13:54:02;;;;;;;3.40;2.40;;;;;;;;;;5075933;28;20458;-60
2021/04/26 13:56:28;;;;;;;9.13;3.67;;;;;;;;;;5075950;28;20467;-60
2021/04/26 13:58:55;;;;;;;3.27;2.63;;;;;;;;;;5076357;28;20447;-60
2021/04/26 14:01:23;;;;;;;3.37;3.07;;;;;;;;;;5076060;28;20963;-60
2021/04/26 14:03:50;;;;;;;3.80;2.80;;;;;;;;;;5076801;28;20450;-61
2021/04/26 14:06:17;;;;;;;2.30;2.00;;;;;;;;;;5075897;28;20471;-60
2021/04/26 14:08:43;;;;;;;2.20;2.00;;;;;;;;;;5077996;28;20487;-60
2021/04/26 14:11:10;;;;;;;2.20;1.97;;;;;;;;;;5078927;28;20443;-60
2021/04/26 14:13:38;;;;;;;2.80;2.10;;;;;;;;;;5078993;28;20475;-61
2021/04/26 14:16:05;;;;;;;3.40;2.30;;;;;;;;;;5076935;28;20467;-60
2021/04/26 14:18:33;;;;;;;3.30;2.53;;;;;;;;;;5077333;28;20444;-62
2021/04/26 14:21:00;;;;;;;3.77;2.40;;;;;;;;;;5076062;28;20996;-60
2021/04/26 14:23:27;;;;;;;2.90;2.60;;;;;;;;;;5076585;28;20456;-60
2021/04/26 14:25:53;;;;;;;2.47;2.10;;;;;;;;;;5075818;28;20509;-60
2021/04/26 14:28:20;;;;;;;4.47;2.70;;;;;;;;;;5076027;28;20548;-61
2021/04/26 14:30:47;;;;;;;6.80;2.63;;;;;;;;;;5076111;28;20474;-61
2021/04/26 14:33:15;;;;;;;3.03;2.23;;;;;;;;;;5075771;28;20447;-60
2021/04/26 14:35:43;;;;;;;3.73;2.47;;;;;;;;;;5075468;28;20517;-61
2021/04/26 14:38:15;;;;;;;3.47;2.33;;;;;;;;;;5075321;28;20928;-61
2021/04/26 14:40:41;;;;;;;3.00;2.60;;;;;;;;;;5074599;28;20432;-60
2021/04/26 14:43:08;;;;;;;3.20;2.43;;;;;;;;;;5075076;28;20455;-61
2021/04/26 14:45:35;;;;;;;4.37;2.30;;;;;;;;;;5075837;28;20524;-61
2021/04/26 14:48:02;;;;;;;6.57;2.73;;;;;;;;;;5076262;28;20490;-61
2021/04/26 14:50:29;;;;;;;5.87;2.80;;;;;;;;;;5074614;28;20474;-61
2021/04/26 14:52:57;;;;;;;3.67;2.47;;;;;;;;;;5074687;28;20446;-62